Time;durP1;ratioP1;P1;durP2;ratioP2;P2;SDS_P1;SDS_P2;PMS_P1;PMS_P2;Temp;Humidity;BMP_temperature;BMP_pressure;BME280_temperature;BME280_humidity;BME280_pressure;Samples;Min_cycle;Max_cycle;Signal;HPM_P1;HPM_P2
2023/03/17 00:00:19;;;;;;;5.83;4.53;;;10.10;51.70;;;;;;5052947;28;20577;-42
2023/03/17 00:02:46;;;;;;;4.40;4.00;;;10.30;51.40;;;;;;5053450;28;20438;-43
2023/03/17 00:05:22;;;;;;;5.80;4.40;;;10.40;51.20;;;;;;5051933;28;20765;-47
2023/03/17 00:07:50;;;;;;;5.63;4.40;;;10.50;50.90;;;;;;5053420;28;20550;-43
2023/03/17 00:10:26;;;;;;;5.20;4.23;;;10.70;50.80;;;;;;5052926;28;20480;-47
2023/03/17 00:12:53;;;;;;;4.37;4.03;;;10.80;50.50;;;;;;5053118;28;20438;-43
2023/03/17 00:15:20;;;;;;;5.83;4.50;;;10.80;50.30;;;;;;5053238;28;20784;-42
2023/03/17 00:17:48;;;;;;;5.33;4.83;;;10.70;50.30;;;;;;5053320;28;20421;-45
2023/03/17 00:20:26;;;;;;;4.93;4.43;;;10.80;50.30;;;;;;5052785;28;20809;-42
2023/03/17 00:22:54;;;;;;;7.63;4.40;;;10.80;50.20;;;;;;5053101;28;20922;-46
2023/03/17 00:25:22;;;;;;;4.63;4.20;;;10.70;50.30;;;;;;5052974;28;20526;-43
2023/03/17 00:27:48;;;;;;;4.40;4.00;;;10.50;50.50;;;;;;5053245;28;20466;-44
2023/03/17 00:30:14;;;;;;;5.07;4.57;;;10.60;50.70;;;;;;5052586;28;20501;-42
2023/03/17 00:32:40;;;;;;;5.43;4.27;;;10.50;50.80;;;;;;5051141;28;20431;-44
2023/03/17 00:35:26;;;;;;;5.83;4.57;;;10.50;50.80;;;;;;5052841;28;20415;-44
2023/03/17 00:37:54;;;;;;;4.40;4.00;;;10.50;51.10;;;;;;5052818;28;20220;-44
2023/03/17 00:40:24;;;;;;;4.50;4.10;;;10.60;50.90;;;;;;5052357;28;20486;-44
2023/03/17 00:42:51;;;;;;;5.40;3.90;;;10.50;50.90;;;;;;5052731;28;20960;-43
2023/03/17 00:45:18;;;;;;;4.40;4.00;;;10.40;51.20;;;;;;5052692;28;20844;-43
2023/03/17 00:47:44;;;;;;;5.70;4.07;;;10.40;51.40;;;;;;5052684;28;20518;-44
2023/03/17 00:50:13;;;;;;;7.40;4.43;;;10.40;51.50;;;;;;5052187;28;20852;-42
2023/03/17 00:52:39;;;;;;;4.47;3.43;;;10.50;51.30;;;;;;5052597;28;20197;-43
2023/03/17 00:55:07;;;;;;;3.77;3.37;;;10.50;51.10;;;;;;5052291;28;20462;-45
2023/03/17 00:57:34;;;;;;;5.57;4.20;;;10.60;51.00;;;;;;5050743;28;21241;-43
2023/03/17 01:00:00;;;;;;;4.80;4.33;;;10.40;51.10;;;;;;5052159;28;20479;-43
2023/03/17 01:02:26;;;;;;;5.67;3.97;;;10.50;51.30;;;;;;5052319;28;20476;-44
2023/03/17 01:04:53;;;;;;;4.60;4.10;;;10.70;51.10;;;;;;5052430;28;20425;-44
2023/03/17 01:07:18;;;;;;;6.47;4.30;;;10.60;50.90;;;;;;5052064;28;20197;-44
2023/03/17 01:09:44;;;;;;;5.63;4.53;;;10.60;51.00;;;;;;5050666;28;20922;-43
2023/03/17 01:12:12;;;;;;;5.80;3.93;;;10.50;51.00;;;;;;5052096;28;20185;-45
2023/03/17 01:14:39;;;;;;;4.87;3.77;;;10.40;51.00;;;;;;5052106;28;20204;-43
2023/03/17 01:17:17;;;;;;;5.27;4.33;;;10.40;51.20;;;;;;5051818;28;20427;-42
2023/03/17 01:19:43;;;;;;;5.13;3.83;;;10.40;51.40;;;;;;5051453;28;20490;-43
2023/03/17 01:22:09;;;;;;;5.07;4.30;;;10.40;51.30;;;;;;5051856;28;20473;-43
2023/03/17 01:24:35;;;;;;;5.50;4.10;;;10.20;51.60;;;;;;5050241;28;20423;-44
2023/03/17 01:27:01;;;;;;;3.83;3.53;;;10.30;51.70;;;;;;5052262;28;20664;-43
2023/03/17 01:29:27;;;;;;;4.33;3.90;;;10.40;51.50;;;;;;5051570;28;20203;-42
2023/03/17 01:31:52;;;;;;;6.60;3.97;;;10.40;51.60;;;;;;5051773;28;20431;-46
2023/03/17 01:34:18;;;;;;;5.00;3.83;;;10.40;51.60;;;;;;5051819;28;20586;-42
2023/03/17 01:36:44;;;;;;;5.53;3.80;;;10.20;51.70;;;;;;5051629;28;20616;-46
2023/03/17 01:39:10;;;;;;;4.70;3.80;;;10.00;51.90;;;;;;5051186;28;20615;-43
2023/03/17 01:41:36;;;;;;;5.73;4.20;;;10.30;52.00;;;;;;5051626;28;20266;-44
2023/03/17 01:44:02;;;;;;;4.87;3.77;;;10.30;51.30;;;;;;5051434;28;20558;-43
2023/03/17 01:46:33;;;;;;;4.37;3.97;;;10.10;51.30;;;;;;5051425;28;21057;-44
2023/03/17 01:49:14;;;;;;;4.10;3.70;;;10.10;51.90;;;;;;5051128;28;20480;-44
2023/03/17 01:51:59;;;;;;;5.43;3.70;;;10.20;51.80;;;;;;5049857;28;20429;-45
2023/03/17 01:54:28;;;;;;;4.13;3.73;;;10.40;51.70;;;;;;5051283;28;20467;-43
2023/03/17 01:56:59;;;;;;;4.80;4.30;;;10.40;51.10;;;;;;5051301;28;20439;-44
2023/03/17 01:59:30;;;;;;;4.47;4.07;;;10.70;50.80;;;;;;5050760;28;20570;-44
2023/03/17 02:02:07;;;;;;;4.30;3.70;;;10.70;50.50;;;;;;5051288;28;20427;-43
2023/03/17 02:04:34;;;;;;;3.87;3.57;;;10.80;50.30;;;;;;5051212;28;20791;-45
2023/03/17 02:07:02;;;;;;;4.93;4.23;;;10.80;50.30;;;;;;5051250;28;20423;-43
2023/03/17 02:09:28;;;;;;;6.50;3.77;;;10.80;50.20;;;;;;5050577;28;20435;-45
2023/03/17 02:11:55;;;;;;;4.20;3.60;;;10.60;50.70;;;;;;5050878;28;20794;-44
2023/03/17 02:14:20;;;;;;;4.30;3.90;;;10.50;50.90;;;;;;5050990;28;20208;-43
2023/03/17 02:16:47;;;;;;;3.90;3.50;;;10.60;50.80;;;;;;5051013;28;20427;-44
2023/03/17 02:19:12;;;;;;;4.63;3.40;;;10.90;50.60;;;;;;5048705;28;20322;-43
2023/03/17 02:21:44;;;;;;;5.53;3.80;;;10.70;50.40;;;;;;5050661;28;20509;-44
2023/03/17 02:24:33;;;;;;;3.97;3.57;;;10.70;50.60;;;;;;5050672;28;20185;-46
2023/03/17 02:27:04;;;;;;;4.40;3.67;;;10.70;50.70;;;;;;5050853;28;20427;-43
2023/03/17 02:29:33;;;;;;;4.27;3.70;;;10.80;50.50;;;;;;5050414;28;20945;-44
2023/03/17 02:31:59;;;;;;;4.47;3.70;;;11.00;50.20;;;;;;5050885;28;20431;-46
2023/03/17 02:34:25;;;;;;;3.43;3.13;;;10.90;50.10;;;;;;5050835;28;20917;-43
2023/03/17 02:36:51;;;;;;;4.20;3.80;;;10.70;50.60;;;;;;5050749;28;20188;-42
2023/03/17 02:39:17;;;;;;;5.13;3.80;;;10.80;50.70;;;;;;5050257;28;20684;-44
2023/03/17 02:41:42;;;;;;;4.27;3.97;;;10.90;50.40;;;;;;5050664;28;20274;-46
2023/03/17 02:44:08;;;;;;;3.93;3.53;;;11.00;50.30;;;;;;5049601;28;20473;-43
2023/03/17 02:46:34;;;;;;;5.63;3.93;;;11.00;50.20;;;;;;5050127;28;20330;-43
2023/03/17 02:49:00;;;;;;;4.57;3.80;;;11.10;49.90;;;;;;5050117;28;20431;-43
2023/03/17 02:51:26;;;;;;;9.33;4.47;;;10.90;50.00;;;;;;5050560;28;20199;-45
2023/03/17 02:53:52;;;;;;;4.10;3.60;;;11.00;50.10;;;;;;5050438;28;20791;-43
2023/03/17 02:56:17;;;;;;;4.27;3.87;;;10.90;50.00;;;;;;5050315;28;20433;-43
2023/03/17 02:58:43;;;;;;;4.27;3.90;;;10.90;49.80;;;;;;5050097;28;20200;-45
2023/03/17 03:01:09;;;;;;;4.53;4.13;;;10.90;49.90;;;;;;5050362;28;20220;-44
2023/03/17 03:03:35;;;;;;;4.40;4.00;;;10.80;50.10;;;;;;5050361;28;20197;-42
2023/03/17 03:06:01;;;;;;;5.30;4.20;;;10.60;50.40;;;;;;5050169;28;20470;-43
2023/03/17 03:08:26;;;;;;;4.83;4.00;;;10.70;50.40;;;;;;5050313;28;20208;-42
2023/03/17 03:10:53;;;;;;;5.10;3.90;;;11.00;50.20;;;;;;5049210;28;20250;-43
2023/03/17 03:13:19;;;;;;;4.20;3.80;;;11.10;49.70;;;;;;5050105;28;20608;-43
2023/03/17 03:15:46;;;;;;;7.63;4.03;;;10.80;50.00;;;;;;5050269;28;20472;-43
2023/03/17 03:18:12;;;;;;;4.70;4.07;;;11.00;50.00;;;;;;5049987;28;20188;-43
2023/03/17 03:20:40;;;;;;;5.00;3.80;;;11.20;49.70;;;;;;5050103;28;20494;-43
2023/03/17 03:23:06;;;;;;;4.40;3.67;;;11.20;49.70;;;;;;5050291;28;20200;-43
2023/03/17 03:25:32;;;;;;;4.73;4.20;;;11.20;49.50;;;;;;5050176;28;20991;-43
2023/03/17 03:27:58;;;;;;;3.87;3.50;;;11.40;49.30;;;;;;5049951;28;20279;-43
2023/03/17 03:30:23;;;;;;;4.57;4.07;;;11.20;48.80;;;;;;5050230;28;20593;-43
2023/03/17 03:32:49;;;;;;;4.43;3.70;;;11.00;49.40;;;;;;5052424;28;20704;-42
2023/03/17 03:35:15;;;;;;;4.97;4.10;;;11.00;49.80;;;;;;5053910;28;20560;-43
2023/03/17 03:37:41;;;;;;;4.83;4.13;;;10.90;49.90;;;;;;5052115;28;20724;-43
2023/03/17 03:40:07;;;;;;;5.20;4.17;;;11.10;50.10;;;;;;5053627;28;20475;-42
2023/03/17 03:42:33;;;;;;;4.17;3.10;;;11.10;49.90;;;;;;5053940;28;20196;-43
2023/03/17 03:44:59;;;;;;;4.07;3.50;;;11.30;49.60;;;;;;5053811;28;20973;-42
2023/03/17 03:47:25;;;;;;;4.50;4.10;;;11.50;49.40;;;;;;5053566;28;20196;-43
2023/03/17 03:49:50;;;;;;;4.47;4.00;;;11.60;49.20;;;;;;5053301;28;20492;-45
2023/03/17 03:52:16;;;;;;;3.73;3.43;;;11.70;49.00;;;;;;5053723;28;20250;-42
2023/03/17 03:54:41;;;;;;;5.60;4.40;;;11.80;49.30;;;;;;5053271;28;20255;-43
2023/03/17 03:57:07;;;;;;;4.73;4.23;;;11.70;48.50;;;;;;5053657;28;20235;-42
2023/03/17 03:59:33;;;;;;;6.30;4.27;;;11.70;48.60;;;;;;5053162;28;20216;-44
2023/03/17 04:01:59;;;;;;;5.30;4.03;;;11.50;48.70;;;;;;5053622;28;20192;-45
2023/03/17 04:04:24;;;;;;;7.10;3.70;;;11.40;48.90;;;;;;5051636;28;20204;-42
2023/03/17 04:06:50;;;;;;;5.07;3.83;;;11.60;48.70;;;;;;5053499;28;20192;-42
2023/03/17 04:09:16;;;;;;;4.30;3.63;;;11.60;48.50;;;;;;5053019;28;20196;-43
2023/03/17 04:11:41;;;;;;;4.30;3.97;;;11.40;48.80;;;;;;5053326;28;20204;-45
2023/03/17 04:14:07;;;;;;;4.30;3.50;;;11.30;49.30;;;;;;5053401;28;20427;-42
2023/03/17 04:16:33;;;;;;;4.57;4.13;;;11.40;49.20;;;;;;5053208;28;20200;-42
2023/03/17 04:18:58;;;;;;;3.93;3.63;;;11.40;49.10;;;;;;5052718;28;20212;-44
2023/03/17 04:21:24;;;;;;;3.73;3.40;;;11.50;49.00;;;;;;5053023;28;20239;-44
2023/03/17 04:23:50;;;;;;;4.37;3.93;;;11.50;49.00;;;;;;5053122;28;20200;-43
2023/03/17 04:26:17;;;;;;;4.70;4.00;;;11.40;49.20;;;;;;5052972;28;20193;-42
2023/03/17 04:28:43;;;;;;;4.50;3.27;;;11.40;49.40;;;;;;5052590;28;20232;-43
2023/03/17 04:31:11;;;;;;;4.77;4.17;;;11.40;49.40;;;;;;5051246;28;20476;-42
2023/03/17 04:33:37;;;;;;;3.67;3.37;;;11.40;49.40;;;;;;5052985;28;20820;-43
2023/03/17 04:36:03;;;;;;;4.07;3.40;;;11.50;49.40;;;;;;5053021;28;20422;-42
2023/03/17 04:38:28;;;;;;;6.43;4.10;;;11.50;49.30;;;;;;5052536;28;20431;-43
2023/03/17 04:40:54;;;;;;;4.27;3.47;;;11.50;49.30;;;;;;5052720;28;20224;-44
2023/03/17 04:43:19;;;;;;;6.83;4.13;;;11.40;49.40;;;;;;5052519;28;20232;-43
2023/03/17 04:45:45;;;;;;;9.97;3.63;;;11.30;49.60;;;;;;5052888;28;20192;-42
2023/03/17 04:48:10;;;;;;;5.20;3.97;;;11.20;49.80;;;;;;5052158;28;20334;-42
2023/03/17 04:50:36;;;;;;;4.13;3.73;;;11.10;49.80;;;;;;5052479;28;20192;-42
2023/03/17 04:53:01;;;;;;;4.47;3.43;;;11.00;50.00;;;;;;5052345;28;20591;-43
2023/03/17 04:55:27;;;;;;;5.00;3.90;;;10.90;50.10;;;;;;5052431;28;20240;-42
2023/03/17 04:57:53;;;;;;;5.20;4.20;;;10.90;50.10;;;;;;5050536;28;20196;-43
2023/03/17 05:00:19;;;;;;;4.47;4.07;;;10.90;49.90;;;;;;5052465;28;20629;-44
2023/03/17 05:02:44;;;;;;;6.17;3.97;;;10.90;49.90;;;;;;5052219;28;20208;-44
2023/03/17 05:05:11;;;;;;;3.90;3.50;;;10.50;50.80;;;;;;5052285;28;20500;-42
2023/03/17 05:07:37;;;;;;;5.00;4.47;;;10.40;51.00;;;;;;5051836;28;20197;-42
2023/03/17 05:10:04;;;;;;;4.60;4.20;;;10.30;51.20;;;;;;5052241;28;20435;-44
2023/03/17 05:12:29;;;;;;;4.63;4.23;;;10.00;51.50;;;;;;5052262;28;20196;-43
2023/03/17 05:14:55;;;;;;;4.27;3.80;;;9.80;53.10;;;;;;5052348;28;20814;-43
2023/03/17 05:17:21;;;;;;;8.73;4.63;;;9.70;53.50;;;;;;5052177;28;20274;-43
2023/03/17 05:19:56;;;;;;;4.70;4.20;;;9.80;53.50;;;;;;5051626;28;20216;-46
2023/03/17 05:22:21;;;;;;;6.13;4.40;;;9.70;53.50;;;;;;5051603;28;20206;-44
2023/03/17 05:24:47;;;;;;;5.20;3.87;;;9.50;53.90;;;;;;5050274;28;20427;-43
2023/03/17 05:27:13;;;;;;;4.63;4.20;;;9.30;54.30;;;;;;5051724;28;20270;-44
2023/03/17 05:29:38;;;;;;;6.90;4.23;;;9.10;55.00;;;;;;5033826;28;20213;-47
2023/03/17 05:32:04;;;;;;;4.20;3.70;;;9.30;55.00;;;;;;5033856;28;20196;-44
2023/03/17 05:34:30;;;;;;;4.57;3.50;;;9.20;55.00;;;;;;5051778;28;20224;-45
2023/03/17 05:36:55;;;;;;;4.40;4.00;;;9.50;54.70;;;;;;5051870;28;20307;-43
2023/03/17 05:39:21;;;;;;;4.30;3.90;;;9.70;53.90;;;;;;5051313;28;20263;-43
2023/03/17 05:41:47;;;;;;;4.30;3.90;;;9.80;53.40;;;;;;5051554;28;20197;-44
2023/03/17 05:44:13;;;;;;;4.67;4.27;;;9.90;53.20;;;;;;5051637;28;20289;-45
2023/03/17 05:46:39;;;;;;;3.80;3.50;;;9.90;53.20;;;;;;5051531;28;20564;-44
2023/03/17 05:49:05;;;;;;;4.10;3.70;;;10.10;52.20;;;;;;5050969;28;20938;-45
2023/03/17 05:51:30;;;;;;;4.30;3.90;;;10.10;52.00;;;;;;5049768;28;20437;-44
2023/03/17 05:53:56;;;;;;;9.90;4.10;;;10.10;52.10;;;;;;5051305;28;20231;-45
2023/03/17 05:56:22;;;;;;;8.80;4.20;;;10.10;51.90;;;;;;5050885;28;20645;-46
2023/03/17 05:58:47;;;;;;;5.00;4.50;;;10.20;52.00;;;;;;5050806;28;20192;-45
2023/03/17 06:01:13;;;;;;;4.73;4.33;;;10.30;51.70;;;;;;5051050;28;20236;-44
2023/03/17 06:03:39;;;;;;;6.43;4.00;;;10.40;52.10;;;;;;5051156;28;20202;-43
2023/03/17 06:06:05;;;;;;;4.03;3.63;;;10.40;51.60;;;;;;5051188;28;20220;-44
2023/03/17 06:08:31;;;;;;;4.27;3.97;;;10.40;51.60;;;;;;5050805;28;20462;-44
2023/03/17 06:10:57;;;;;;;5.50;4.30;;;10.40;51.60;;;;;;5051308;28;20514;-44
2023/03/17 06:13:22;;;;;;;4.23;3.53;;;10.40;51.70;;;;;;5051123;28;20203;-45
2023/03/17 06:15:51;;;;;;;4.67;4.00;;;10.40;51.80;;;;;;5050819;28;20726;-43
2023/03/17 06:18:18;;;;;;;6.17;4.60;;;10.00;52.50;;;;;;5048866;28;20265;-44
2023/03/17 06:20:43;;;;;;;9.77;4.27;;;9.90;54.30;;;;;;5050731;28;20533;-42
2023/03/17 06:23:09;;;;;;;7.80;4.10;;;10.00;53.50;;;;;;5051010;28;20419;-42
2023/03/17 06:25:35;;;;;;;6.17;5.17;;;9.80;54.40;;;;;;5050824;28;20196;-42
2023/03/17 06:28:03;;;;;;;6.50;4.73;;;9.60;54.90;;;;;;5050469;28;20465;-43
2023/03/17 06:30:30;;;;;;;10.13;5.33;;;9.60;55.60;;;;;;5050677;28;20798;-43
2023/03/17 06:32:55;;;;;;;6.47;4.70;;;9.70;55.30;;;;;;5050756;28;20433;-42
2023/03/17 06:35:21;;;;;;;9.43;4.43;;;9.80;55.10;;;;;;5050563;28;20513;-43
2023/03/17 06:37:47;;;;;;;8.80;5.07;;;9.80;54.80;;;;;;5050146;28;20197;-44
2023/03/17 06:40:13;;;;;;;4.63;4.20;;;9.90;54.80;;;;;;5032535;28;21054;-42
2023/03/17 06:42:39;;;;;;;5.80;5.20;;;10.00;53.70;;;;;;5050498;28;20196;-45
2023/03/17 06:45:05;;;;;;;9.47;4.57;;;10.20;53.60;;;;;;5048853;28;20527;-46
2023/03/17 06:47:30;;;;;;;6.07;5.03;;;10.40;53.00;;;;;;5050053;28;20200;-44
2023/03/17 06:49:56;;;;;;;7.77;5.47;;;10.20;53.10;;;;;;5050424;28;20427;-43
2023/03/17 06:52:22;;;;;;;5.60;5.00;;;10.10;53.70;;;;;;5050790;28;20220;-45
2023/03/17 06:54:47;;;;;;;5.17;4.67;;;10.40;53.80;;;;;;5050288;28;20228;-43
2023/03/17 06:57:13;;;;;;;6.60;5.20;;;10.50;53.10;;;;;;5050598;28;20242;-43
2023/03/17 06:59:39;;;;;;;6.90;5.03;;;10.50;52.80;;;;;;5049870;28;20216;-42
2023/03/17 07:02:04;;;;;;;5.70;4.47;;;10.60;52.90;;;;;;5050314;28;20192;-45
2023/03/17 07:04:30;;;;;;;6.03;4.80;;;10.60;53.20;;;;;;5050368;28;20785;-42
2023/03/17 07:06:56;;;;;;;5.43;4.90;;;10.80;52.90;;;;;;5051395;28;20241;-43
2023/03/17 07:09:22;;;;;;;5.30;4.30;;;10.90;52.80;;;;;;5054113;28;20427;-44
2023/03/17 07:11:48;;;;;;;6.47;5.23;;;11.10;52.50;;;;;;5052931;28;20942;-45
2023/03/17 07:14:14;;;;;;;7.03;4.50;;;11.20;52.00;;;;;;5054278;28;20700;-46
2023/03/17 07:16:39;;;;;;;6.83;5.03;;;11.50;51.70;;;;;;5054272;28;20506;-42
2023/03/17 07:19:06;;;;;;;6.90;4.43;;;11.70;51.30;;;;;;5053938;28;20204;-43
2023/03/17 07:21:31;;;;;;;5.73;4.53;;;11.90;51.20;;;;;;5054386;28;20284;-45
2023/03/17 07:23:57;;;;;;;7.43;5.10;;;12.00;50.70;;;;;;5054168;28;20517;-43
2023/03/17 07:26:23;;;;;;;7.37;5.23;;;12.00;50.60;;;;;;5054223;28;20208;-42
2023/03/17 07:28:49;;;;;;;5.97;4.73;;;11.90;51.00;;;;;;5053824;28;20201;-42
2023/03/17 07:31:14;;;;;;;7.50;5.40;;;12.30;50.70;;;;;;5054133;28;20926;-43
2023/03/17 07:33:40;;;;;;;5.67;4.70;;;12.60;49.60;;;;;;5054075;28;20246;-44
2023/03/17 07:36:07;;;;;;;8.03;5.00;;;12.80;49.10;;;;;;5054142;28;20196;-42
2023/03/17 07:38:33;;;;;;;5.63;4.67;;;12.90;48.70;;;;;;5051808;28;20438;-43
2023/03/17 07:40:59;;;;;;;5.57;3.70;;;13.20;48.50;;;;;;5053922;28;20569;-44
2023/03/17 07:43:25;;;;;;;6.00;4.43;;;13.40;47.50;;;;;;5053588;28;20867;-48
2023/03/17 07:45:51;;;;;;;5.27;4.40;;;13.40;47.40;;;;;;5053751;28;20279;-45
2023/03/17 07:48:17;;;;;;;6.13;4.10;;;13.30;46.70;;;;;;5053525;28;20807;-42
2023/03/17 07:50:44;;;;;;;8.17;4.43;;;13.30;46.70;;;;;;5053690;28;20484;-44
2023/03/17 07:53:10;;;;;;;7.70;4.63;;;13.40;46.80;;;;;;5053458;28;20484;-43
2023/03/17 07:55:37;;;;;;;5.53;4.10;;;13.60;46.50;;;;;;5053538;28;20987;-44
2023/03/17 07:58:03;;;;;;;8.10;4.47;;;13.70;45.90;;;;;;5053417;28;20434;-46
2023/03/17 08:00:29;;;;;;;5.10;3.90;;;14.00;45.90;;;;;;5053668;28;20474;-42
2023/03/17 08:02:55;;;;;;;4.83;4.20;;;14.20;45.50;;;;;;5053450;28;21003;-43
2023/03/17 08:05:21;;;;;;;6.30;4.50;;;14.40;44.80;;;;;;5051918;28;20201;-45
2023/03/17 08:07:47;;;;;;;8.87;5.00;;;14.50;44.30;;;;;;5052767;28;20212;-43
2023/03/17 08:10:13;;;;;;;6.50;4.53;;;14.60;43.90;;;;;;5053354;28;20881;-44
2023/03/17 08:12:40;;;;;;;5.77;4.80;;;14.70;43.80;;;;;;5053168;28;20419;-44
2023/03/17 08:15:06;;;;;;;5.73;4.90;;;14.80;43.50;;;;;;5053141;28;20725;-43
2023/03/17 08:17:33;;;;;;;7.83;4.30;;;14.90;43.10;;;;;;5052326;28;20416;-43
2023/03/17 08:19:59;;;;;;;5.53;4.10;;;15.10;43.30;;;;;;5053444;28;20486;-44
2023/03/17 08:22:24;;;;;;;4.90;4.40;;;15.10;43.20;;;;;;5053181;28;20537;-44
2023/03/17 08:24:50;;;;;;;4.53;4.13;;;15.30;43.10;;;;;;5053203;28;20192;-43
2023/03/17 08:27:17;;;;;;;4.87;4.00;;;15.60;42.90;;;;;;5052623;28;20185;-42
2023/03/17 08:29:43;;;;;;;4.73;4.33;;;15.70;42.20;;;;;;5052992;28;20439;-44
2023/03/17 08:32:09;;;;;;;4.60;4.20;;;15.90;42.00;;;;;;5051296;28;20489;-45
2023/03/17 08:34:35;;;;;;;6.33;4.97;;;16.10;41.70;;;;;;5052767;28;20193;-44
2023/03/17 08:37:02;;;;;;;6.83;4.30;;;16.30;41.70;;;;;;5052925;28;20195;-43
2023/03/17 08:39:28;;;;;;;4.33;3.93;;;16.30;41.00;;;;;;5052528;28;20463;-43
2023/03/17 08:41:54;;;;;;;4.10;3.67;;;16.40;41.20;;;;;;5052550;28;20439;-43
2023/03/17 08:44:20;;;;;;;4.20;3.70;;;16.40;40.50;;;;;;5052708;28;21115;-44
2023/03/17 08:46:48;;;;;;;6.40;3.77;;;16.30;40.00;;;;;;5052619;28;20207;-46
2023/03/17 08:49:15;;;;;;;7.43;3.47;;;16.00;40.50;;;;;;5052302;28;20446;-43
2023/03/17 08:51:41;;;;;;;8.43;5.13;;;16.20;40.50;;;;;;5052754;28;20788;-43
2023/03/17 08:54:07;;;;;;;3.40;3.10;;;15.80;39.60;;;;;;5052434;28;20430;-42
2023/03/17 08:56:35;;;;;;;4.30;3.47;;;15.90;39.50;;;;;;5052312;28;20438;-47
2023/03/17 08:59:04;;;;;;;5.07;3.43;;;16.20;39.70;;;;;;5050357;28;20427;-44
2023/03/17 09:01:31;;;;;;;4.27;3.87;;;16.50;38.40;;;;;;5052368;28;20990;-43
2023/03/17 09:03:56;;;;;;;5.53;3.80;;;16.80;38.10;;;;;;5052552;28;20435;-44
2023/03/17 09:06:23;;;;;;;3.43;3.10;;;17.00;37.80;;;;;;5052460;28;20796;-43
2023/03/17 09:08:53;;;;;;;3.30;2.97;;;17.30;37.30;;;;;;5052075;28;20326;-45
2023/03/17 09:11:22;;;;;;;3.13;2.83;;;17.40;36.20;;;;;;5039012;28;20431;-44
2023/03/17 09:13:48;;;;;;;4.27;3.87;;;17.40;36.60;;;;;;5052074;28;20964;-46
2023/03/17 09:16:14;;;;;;;4.80;2.90;;;17.30;36.50;;;;;;5052102;28;20435;-43
2023/03/17 09:18:40;;;;;;;3.77;3.27;;;17.30;36.50;;;;;;5051747;28;20193;-44
2023/03/17 09:21:07;;;;;;;4.13;3.73;;;17.30;36.20;;;;;;5052207;28;20529;-44
2023/03/17 09:23:33;;;;;;;3.93;3.47;;;17.20;36.50;;;;;;5052031;28;20209;-46
2023/03/17 09:26:00;;;;;;;4.50;3.47;;;17.30;37.20;;;;;;5050435;28;20428;-44
2023/03/17 09:28:26;;;;;;;4.23;3.80;;;17.60;37.00;;;;;;5051861;28;20204;-44
2023/03/17 09:30:57;;;;;;;5.80;3.23;;;17.90;36.60;;;;;;5051031;28;20477;-43
2023/03/17 09:33:22;;;;;;;3.33;3.00;;;18.20;36.70;;;;;;5051840;28;20593;-47
2023/03/17 09:35:50;;;;;;;4.83;3.30;;;18.40;36.70;;;;;;5051925;28;20426;-46
2023/03/17 09:38:16;;;;;;;4.30;3.30;;;18.70;36.70;;;;;;5051499;28;20195;-43
2023/03/17 09:41:11;;;;;;;4.77;3.40;;;19.00;36.40;;;;;;5051575;28;20909;-43
2023/03/17 09:43:43;;;;;;;3.60;2.97;;;19.30;36.10;;;;;;5051739;28;20216;-44
2023/03/17 09:46:44;;;;;;;3.60;2.87;;;19.50;35.90;;;;;;5051695;28;20463;-44
2023/03/17 09:49:36;;;;;;;4.73;3.10;;;19.60;35.10;;;;;;5051090;28;20794;-44
2023/03/17 09:52:02;;;;;;;3.50;2.70;;;19.70;34.50;;;;;;5018693;28;20544;-44
2023/03/17 09:54:32;;;;;;;3.77;2.50;;;19.60;34.10;;;;;;5051210;28;20503;-45
2023/03/17 09:57:05;;;;;;;4.30;2.57;;;19.90;34.40;;;;;;5051493;28;20192;-46
2023/03/17 09:59:39;;;;;;;3.03;2.60;;;20.20;34.90;;;;;;5051156;28;20471;-45
2023/03/17 10:02:21;;;;;;;5.40;2.67;;;20.40;34.10;;;;;;5051286;28;20426;-44
2023/03/17 10:04:47;;;;;;;4.20;2.20;;;20.40;33.50;;;;;;5051205;28;20516;-44
2023/03/17 10:07:18;;;;;;;5.50;2.53;;;20.60;33.90;;;;;;5050946;28;20487;-45
2023/03/17 10:10:04;;;;;;;3.40;2.43;;;20.70;31.90;;;;;;5038300;28;20442;-45
2023/03/17 10:12:44;;;;;;;3.93;2.37;;;21.00;31.70;;;;;;5051376;28;20550;-44
2023/03/17 10:15:20;;;;;;;3.00;2.37;;;21.00;30.70;;;;;;5051082;28;20525;-44
2023/03/17 10:17:46;;;;;;;2.17;1.97;;;21.20;31.10;;;;;;5049636;28;20434;-44
2023/03/17 10:20:29;;;;;;;3.10;2.40;;;21.50;31.10;;;;;;5050428;28;20536;-45
2023/03/17 10:22:58;;;;;;;2.17;2.03;;;21.70;30.00;;;;;;5051002;28;20479;-45
2023/03/17 10:25:28;;;;;;;2.37;2.10;;;21.90;30.40;;;;;;5051023;28;20425;-44
2023/03/17 10:28:07;;;;;;;2.53;2.33;;;22.10;30.20;;;;;;5050979;28;20431;-44
2023/03/17 10:30:34;;;;;;;2.50;2.27;;;22.40;30.80;;;;;;5050843;28;20805;-44
2023/03/17 10:33:02;;;;;;;2.20;2.00;;;22.60;31.10;;;;;;5050839;28;20438;-44
2023/03/17 10:35:28;;;;;;;2.23;2.03;;;22.60;29.80;;;;;;5050929;28;20867;-45
2023/03/17 10:37:54;;;;;;;1.83;1.73;;;22.50;29.40;;;;;;5050549;28;20430;-45
2023/03/17 10:40:21;;;;;;;2.60;2.40;;;22.70;30.00;;;;;;5050650;28;20486;-44
2023/03/17 10:42:52;;;;;;;2.10;1.90;;;22.90;29.20;;;;;;5050641;28;20224;-44
2023/03/17 10:45:24;;;;;;;2.67;2.47;;;22.90;29.70;;;;;;5048983;28;20439;-44
2023/03/17 10:47:50;;;;;;;2.00;1.80;;;23.00;29.10;;;;;;5050065;28;20446;-45
2023/03/17 10:50:27;;;;;;;3.40;2.00;;;23.00;28.80;;;;;;5050530;28;20419;-45
2023/03/17 10:53:03;;;;;;;2.50;2.00;;;23.00;29.10;;;;;;5050427;28;20442;-45
2023/03/17 10:55:32;;;;;;;1.80;1.70;;;23.10;28.60;;;;;;5050418;28;20949;-45
2023/03/17 10:58:06;;;;;;;1.87;1.77;;;23.40;29.30;;;;;;5050396;28;20517;-46
2023/03/17 11:00:35;;;;;;;2.57;2.10;;;23.60;29.40;;;;;;5050394;28;20573;-46
2023/03/17 11:03:10;;;;;;;2.40;2.20;;;23.70;29.00;;;;;;5050366;28;20443;-47
2023/03/17 11:05:37;;;;;;;2.97;2.53;;;23.90;29.60;;;;;;5050216;28;20946;-45
2023/03/17 11:08:09;;;;;;;3.40;1.90;;;24.20;30.90;;;;;;5049941;28;20419;-44
2023/03/17 11:10:37;;;;;;;2.27;2.00;;;24.40;30.60;;;;;;5050086;28;20989;-48
2023/03/17 11:13:03;;;;;;;3.23;2.37;;;24.60;29.20;;;;;;5049149;28;20430;-44
2023/03/17 11:15:55;;;;;;;1.97;1.70;;;24.70;28.80;;;;;;5050395;28;20419;-49
2023/03/17 11:18:33;;;;;;;2.13;1.90;;;24.60;26.60;;;;;;5049998;28;20208;-45
2023/03/17 11:21:05;;;;;;;2.33;1.80;;;24.60;26.70;;;;;;5050195;28;20486;-47
2023/03/17 11:23:45;;;;;;;2.10;1.90;;;24.60;26.40;;;;;;5050303;28;20451;-48
2023/03/17 11:26:15;;;;;;;2.80;2.07;;;24.50;27.20;;;;;;5032488;28;20809;-46
2023/03/17 11:28:48;;;;;;;1.63;1.53;;;24.80;27.40;;;;;;5049689;28;20561;-45
2023/03/17 11:31:30;;;;;;;2.87;1.63;;;24.80;25.90;;;;;;5050100;28;20488;-45
2023/03/17 11:34:10;;;;;;;1.97;1.50;;;24.90;26.00;;;;;;5050448;28;20804;-46
2023/03/17 11:36:58;;;;;;;2.03;1.70;;;25.00;26.30;;;;;;5050131;28;20521;-46
2023/03/17 11:39:26;;;;;;;2.97;1.80;;;25.20;27.00;;;;;;5048409;28;20435;-46
2023/03/17 11:42:26;;;;;;;1.90;1.77;;;25.20;27.00;;;;;;5050139;28;20449;-46
2023/03/17 11:45:36;;;;;;;4.70;2.03;;;25.40;26.90;;;;;;5050093;28;20531;-44
2023/03/17 11:48:02;;;;;;;2.10;1.90;;;25.30;26.90;;;;;;5029046;28;20447;-44
2023/03/17 11:50:48;;;;;;;2.37;1.60;;;25.50;26.80;;;;;;5050172;28;20480;-45
2023/03/17 11:53:32;;;;;;;2.20;1.97;;;25.60;26.90;;;;;;5051270;28;20648;-44
2023/03/17 11:56:05;;;;;;;1.80;1.70;;;25.70;26.30;;;;;;5053438;28;20470;-45
2023/03/17 11:58:47;;;;;;;2.57;1.87;;;25.70;27.00;;;;;;5053280;28;20502;-46
2023/03/17 12:01:16;;;;;;;1.40;1.30;;;25.90;26.30;;;;;;5053698;28;20482;-45
2023/03/17 12:04:04;;;;;;;3.83;1.90;;;25.80;25.60;;;;;;5053633;28;20842;-47
2023/03/17 12:06:53;;;;;;;2.43;1.50;;;25.70;25.80;;;;;;5052175;28;20829;-49
2023/03/17 12:09:37;;;;;;;1.67;1.57;;;25.40;25.80;;;;;;5053245;28;20430;-45
2023/03/17 12:12:04;;;;;;;3.00;1.70;;;25.60;25.00;;;;;;5053440;28;20796;-45
2023/03/17 12:14:31;;;;;;;3.90;1.70;;;25.70;24.80;;;;;;5053366;28;20423;-45
2023/03/17 12:17:15;;;;;;;2.23;1.90;;;25.70;25.80;;;;;;5052982;28;20439;-46
2023/03/17 12:19:52;;;;;;;1.87;1.70;;;25.70;26.30;;;;;;5053248;28;20470;-45
2023/03/17 12:22:29;;;;;;;1.50;1.40;;;25.70;25.90;;;;;;5053292;28;20438;-45
2023/03/17 12:25:31;;;;;;;1.73;1.40;;;25.70;25.80;;;;;;5053230;28;20519;-46
2023/03/17 12:28:14;;;;;;;1.40;1.30;;;25.90;26.00;;;;;;5049400;28;20934;-45
2023/03/17 12:31:00;;;;;;;1.70;1.20;;;26.10;25.80;;;;;;5052940;28;20425;-45
2023/03/17 12:33:59;;;;;;;2.07;1.40;;;26.30;25.30;;;;;;5051943;28;21376;-46
2023/03/17 12:36:25;;;;;;;3.87;2.00;;;26.40;24.80;;;;;;5052924;28;20854;-46
2023/03/17 12:39:00;;;;;;;2.03;1.47;;;26.50;25.40;;;;;;5052428;28;20453;-44
2023/03/17 12:41:41;;;;;;;2.80;1.40;;;26.40;24.60;;;;;;5052880;28;20565;-44
2023/03/17 12:44:13;;;;;;;1.67;1.57;;;26.40;24.70;;;;;;5052692;28;20815;-46
2023/03/17 12:46:57;;;;;;;1.60;1.50;;;26.30;24.60;;;;;;5052615;28;21004;-45
2023/03/17 12:49:34;;;;;;;1.80;1.70;;;26.50;25.40;;;;;;5052781;28;20782;-47
2023/03/17 12:52:24;;;;;;;1.93;1.73;;;26.60;25.50;;;;;;5053051;28;20481;-48
2023/03/17 12:54:52;;;;;;;4.30;1.83;;;26.80;25.10;;;;;;5052230;28;20475;-46
2023/03/17 12:57:23;;;;;;;2.70;1.77;;;;;;;;;;5052070;28;20934;-45